sensor_id;sensor_type;location;lat;lon;timestamp;pressure;altitude;pressure_sealevel;temperature;humidity
12172;BME280;6149;52.418;13.668;2022-08-21T00:00:43;101079.75;;;19.11;100.00
12172;BME280;6149;52.418;13.668;2022-08-21T00:03:11;101082.44;;;19.11;100.00
12172;BME280;6149;52.418;13.668;2022-08-21T00:05:40;101075.22;;;19.11;100.00
12172;BME280;6149;52.418;13.668;2022-08-21T00:08:10;101082.53;;;19.09;100.00
12172;BME280;6149;52.418;13.668;2022-08-21T00:10:38;101073.53;;;19.10;100.00
12172;BME280;6149;52.418;13.668;2022-08-21T00:13:05;101073.53;;;19.10;100.00
12172;BME280;6149;52.418;13.668;2022-08-21T00:15:35;101068.16;;;19.10;100.00
12172;BME280;6149;52.418;13.668;2022-08-21T00:18:04;101060.13;;;19.10;100.00
12172;BME280;6149;52.418;13.668;2022-08-21T00:20:32;101059.16;;;19.11;100.00
12172;BME280;6149;52.418;13.668;2022-08-21T00:23:00;101061.94;;;19.10;100.00
12172;BME280;6149;52.418;13.668;2022-08-21T00:25:29;101069.16;;;19.09;100.00
12172;BME280;6149;52.418;13.668;2022-08-21T00:27:56;101063.91;;;19.08;100.00
12172;BME280;6149;52.418;13.668;2022-08-21T00:30:25;101060.25;;;19.09;100.00
12172;BME280;6149;52.418;13.668;2022-08-21T00:32:55;101061.22;;;19.08;100.00
12172;BME280;6149;52.418;13.668;2022-08-21T00:35:25;101069.38;;;19.06;100.00
12172;BME280;6149;52.418;13.668;2022-08-21T00:37:53;101073.03;;;19.05;100.00
12172;BME280;6149;52.418;13.668;2022-08-21T00:40:24;101066.84;;;19.04;100.00
12172;BME280;6149;52.418;13.668;2022-08-21T00:42:56;101067.69;;;19.05;100.00
12172;BME280;6149;52.418;13.668;2022-08-21T00:45:24;101077.56;;;19.04;100.00
12172;BME280;6149;52.418;13.668;2022-08-21T00:47:53;101069.50;;;19.04;100.00
12172;BME280;6149;52.418;13.668;2022-08-21T00:50:20;101070.63;;;19.02;100.00
12172;BME280;6149;52.418;13.668;2022-08-21T00:52:49;101074.03;;;19.04;100.00
12172;BME280;6149;52.418;13.668;2022-08-21T00:55:17;101078.53;;;19.03;100.00
12172;BME280;6149;52.418;13.668;2022-08-21T00:57:47;101078.66;;;19.02;100.00
12172;BME280;6149;52.418;13.668;2022-08-21T01:00:23;101073.28;;;19.02;100.00
12172;BME280;6149;52.418;13.668;2022-08-21T01:02:53;101075.25;;;19.00;100.00
12172;BME280;6149;52.418;13.668;2022-08-21T01:05:20;101068.06;;;19.00;100.00
12172;BME280;6149;52.418;13.668;2022-08-21T01:07:47;101069.03;;;18.99;100.00
12172;BME280;6149;52.418;13.668;2022-08-21T01:10:14;101079.75;;;18.99;100.00
12172;BME280;6149;52.418;13.668;2022-08-21T01:12:41;101076.22;;;18.99;100.00
12172;BME280;6149;52.418;13.668;2022-08-21T01:15:09;101071.72;;;18.99;100.00
12172;BME280;6149;52.418;13.668;2022-08-21T01:17:39;101078.03;;;18.98;100.00
12172;BME280;6149;52.418;13.668;2022-08-21T01:20:08;101080.84;;;18.97;100.00
12172;BME280;6149;52.418;13.668;2022-08-21T01:22:38;101076.34;;;18.97;100.00
12172;BME280;6149;52.418;13.668;2022-08-21T01:25:07;101078.28;;;18.95;100.00
12172;BME280;6149;52.418;13.668;2022-08-21T01:27:35;101091.13;;;18.92;100.00
12172;BME280;6149;52.418;13.668;2022-08-21T01:30:09;101092.94;;;18.91;100.00
12172;BME280;6149;52.418;13.668;2022-08-21T01:32:38;101089.78;;;18.86;100.00
12172;BME280;6149;52.418;13.668;2022-08-21T01:35:06;101094.41;;;18.84;100.00
12172;BME280;6149;52.418;13.668;2022-08-21T01:37:34;101093.44;;;18.85;100.00
12172;BME280;6149;52.418;13.668;2022-08-21T01:40:04;101094.53;;;18.83;100.00
12172;BME280;6149;52.418;13.668;2022-08-21T01:42:32;101095.63;;;18.80;100.00
12172;BME280;6149;52.418;13.668;2022-08-21T01:44:59;101094.88;;;18.78;100.00
12172;BME280;6149;52.418;13.668;2022-08-21T01:47:26;101088.69;;;18.78;100.00
12172;BME280;6149;52.418;13.668;2022-08-21T01:49:53;101079.66;;;18.79;100.00
12172;BME280;6149;52.418;13.668;2022-08-21T01:52:20;101078.09;;;18.76;100.00
12172;BME280;6149;52.418;13.668;2022-08-21T01:54:47;101082.72;;;18.74;100.00
12172;BME280;6149;52.418;13.668;2022-08-21T01:57:15;101078.31;;;18.73;100.00
12172;BME280;6149;52.418;13.668;2022-08-21T01:59:43;101081.00;;;18.73;100.00
12172;BME280;6149;52.418;13.668;2022-08-21T02:02:10;101084.66;;;18.72;100.00
12172;BME280;6149;52.418;13.668;2022-08-21T02:04:36;101079.41;;;18.70;100.00
12172;BME280;6149;52.418;13.668;2022-08-21T02:07:04;101085.00;;;18.67;100.00
12172;BME280;6149;52.418;13.668;2022-08-21T02:09:32;101077.94;;;18.66;100.00
12172;BME280;6149;52.418;13.668;2022-08-21T02:11:58;101079.78;;;18.66;100.00
12172;BME280;6149;52.418;13.668;2022-08-21T02:14:26;101073.81;;;18.62;100.00
12172;BME280;6149;52.418;13.668;2022-08-21T02:16:53;101074.00;;;18.59;100.00
12172;BME280;6149;52.418;13.668;2022-08-21T02:19:20;101077.59;;;18.60;100.00
12172;BME280;6149;52.418;13.668;2022-08-21T02:21:47;101081.47;;;18.56;100.00
12172;BME280;6149;52.418;13.668;2022-08-21T02:24:14;101074.53;;;18.53;100.00
12172;BME280;6149;52.418;13.668;2022-08-21T02:26:41;101080.00;;;18.52;100.00
12172;BME280;6149;52.418;13.668;2022-08-21T02:29:08;101083.66;;;18.51;100.00
12172;BME280;6149;52.418;13.668;2022-08-21T02:31:36;101087.44;;;18.48;100.00
12172;BME280;6149;52.418;13.668;2022-08-21T02:34:04;101083.28;;;18.44;100.00
12172;BME280;6149;52.418;13.668;2022-08-21T02:36:31;101084.38;;;18.42;100.00
12172;BME280;6149;52.418;13.668;2022-08-21T02:38:58;101082.44;;;18.44;100.00
12172;BME280;6149;52.418;13.668;2022-08-21T02:41:24;101075.84;;;18.36;100.00
12172;BME280;6149;52.418;13.668;2022-08-21T02:43:51;101077.66;;;18.36;100.00
12172;BME280;6149;52.418;13.668;2022-08-21T02:46:20;101076.06;;;18.33;100.00
12172;BME280;6149;52.418;13.668;2022-08-21T02:48:49;101069.00;;;18.32;100.00
12172;BME280;6149;52.418;13.668;2022-08-21T02:51:17;101069.25;;;18.29;100.00
12172;BME280;6149;52.418;13.668;2022-08-21T02:53:46;101074.72;;;18.28;100.00
12172;BME280;6149;52.418;13.668;2022-08-21T02:56:16;101076.91;;;18.23;100.00
12172;BME280;6149;52.418;13.668;2022-08-21T02:58:47;101077.28;;;18.18;100.00
12172;BME280;6149;52.418;13.668;2022-08-21T03:01:16;101080.09;;;18.17;100.00
12172;BME280;6149;52.418;13.668;2022-08-21T03:03:45;101080.19;;;18.15;100.00
12172;BME280;6149;52.418;13.668;2022-08-21T03:06:19;101083.09;;;18.12;100.00
12172;BME280;6149;52.418;13.668;2022-08-21T03:08:48;101083.34;;;18.09;100.00
12172;BME280;6149;52.418;13.668;2022-08-21T03:11:18;101082.50;;;18.09;100.00
12172;BME280;6149;52.418;13.668;2022-08-21T03:13:46;101088.06;;;18.06;100.00
12172;BME280;6149;52.418;13.668;2022-08-21T03:16:12;101091.59;;;18.06;100.00
12172;BME280;6149;52.418;13.668;2022-08-21T03:18:40;101080.28;;;18.02;100.00
12172;BME280;6149;52.418;13.668;2022-08-21T03:21:06;101081.38;;;18.00;100.00
12172;BME280;6149;52.418;13.668;2022-08-21T03:23:35;101077.22;;;17.96;100.00
12172;BME280;6149;52.418;13.668;2022-08-21T03:26:03;101078.19;;;17.95;100.00
12172;BME280;6149;52.418;13.668;2022-08-21T03:28:30;101078.66;;;17.89;100.00
12172;BME280;6149;52.418;13.668;2022-08-21T03:30:57;101070.72;;;17.87;100.00
12172;BME280;6149;52.418;13.668;2022-08-21T03:33:24;101073.53;;;17.86;100.00
12172;BME280;6149;52.418;13.668;2022-08-21T03:35:58;101075.56;;;17.82;100.00
12172;BME280;6149;52.418;13.668;2022-08-21T03:38:32;101082.91;;;17.80;100.00
12172;BME280;6149;52.418;13.668;2022-08-21T03:41:01;101082.03;;;17.80;100.00
12172;BME280;6149;52.418;13.668;2022-08-21T03:43:29;101083.25;;;17.76;100.00
12172;BME280;6149;52.418;13.668;2022-08-21T03:45:56;101082.50;;;17.74;100.00
12172;BME280;6149;52.418;13.668;2022-08-21T03:48:23;101087.22;;;17.70;100.00
12172;BME280;6149;52.418;13.668;2022-08-21T03:50:52;101081.13;;;17.68;100.00
12172;BME280;6149;52.418;13.668;2022-08-21T03:53:19;101083.94;;;17.66;100.00
12172;BME280;6149;52.418;13.668;2022-08-21T03:55:46;101086.72;;;17.65;100.00
12172;BME280;6149;52.418;13.668;2022-08-21T03:58:17;101079.00;;;17.60;100.00
12172;BME280;6149;52.418;13.668;2022-08-21T04:00:46;101088.00;;;17.59;100.00
12172;BME280;6149;52.418;13.668;2022-08-21T04:03:14;101091.28;;;17.63;100.00
12172;BME280;6149;52.418;13.668;2022-08-21T04:05:41;101088.97;;;17.58;100.00
12172;BME280;6149;52.418;13.668;2022-08-21T04:08:10;101091.63;;;17.58;100.00
12172;BME280;6149;52.418;13.668;2022-08-21T04:10:39;101090.88;;;17.56;100.00
12172;BME280;6149;52.418;13.668;2022-08-21T04:13:07;101099.88;;;17.55;100.00
12172;BME280;6149;52.418;13.668;2022-08-21T04:15:35;101100.84;;;17.54;100.00
12172;BME280;6149;52.418;13.668;2022-08-21T04:18:02;101097.31;;;17.54;100.00
12172;BME280;6149;52.418;13.668;2022-08-21T04:20:29;101100.00;;;17.54;100.00
12172;BME280;6149;52.418;13.668;2022-08-21T04:22:56;101098.28;;;17.53;100.00
12172;BME280;6149;52.418;13.668;2022-08-21T04:25:23;101097.44;;;17.52;100.00
12172;BME280;6149;52.418;13.668;2022-08-21T04:27:50;101096.56;;;17.52;100.00
12172;BME280;6149;52.418;13.668;2022-08-21T04:30:18;101095.84;;;17.50;100.00
12172;BME280;6149;52.418;13.668;2022-08-21T04:32:49;101093.16;;;17.50;100.00
12172;BME280;6149;52.418;13.668;2022-08-21T04:35:20;101095.84;;;17.50;100.00
12172;BME280;6149;52.418;13.668;2022-08-21T04:37:48;101099.59;;;17.47;100.00
12172;BME280;6149;52.418;13.668;2022-08-21T04:40:17;101103.22;;;17.46;100.00
12172;BME280;6149;52.418;13.668;2022-08-21T04:42:46;101108.84;;;17.43;100.00
12172;BME280;6149;52.418;13.668;2022-08-21T04:45:18;101105.31;;;17.43;100.00
12172;BME280;6149;52.418;13.668;2022-08-21T04:47:50;101107.13;;;17.42;100.00
12172;BME280;6149;52.418;13.668;2022-08-21T04:50:18;101098.25;;;17.42;100.00
12172;BME280;6149;52.418;13.668;2022-08-21T04:52:45;101099.31;;;17.39;100.00
12172;BME280;6149;52.418;13.668;2022-08-21T04:55:13;101107.25;;;17.41;100.00
12172;BME280;6149;52.418;13.668;2022-08-21T04:57:41;101099.31;;;17.39;100.00
12172;BME280;6149;52.418;13.668;2022-08-21T05:00:09;101103.94;;;17.37;100.00
12172;BME280;6149;52.418;13.668;2022-08-21T05:02:39;101108.31;;;17.38;100.00
12172;BME280;6149;52.418;13.668;2022-08-21T05:05:09;101109.16;;;17.38;100.00
12172;BME280;6149;52.418;13.668;2022-08-21T05:07:38;101102.75;;;17.41;100.00
12172;BME280;6149;52.418;13.668;2022-08-21T05:10:09;101107.13;;;17.42;100.00
12172;BME280;6149;52.418;13.668;2022-08-21T05:13:16;101103.72;;;17.40;100.00
12172;BME280;6149;52.418;13.668;2022-08-21T05:16:14;101106.50;;;17.38;100.00
12172;BME280;6149;52.418;13.668;2022-08-21T05:19:12;101118.91;;;17.40;100.00
12172;BME280;6149;52.418;13.668;2022-08-21T05:21:59;101115.16;;;17.42;100.00
12172;BME280;6149;52.418;13.668;2022-08-21T05:24:46;101120.59;;;17.41;100.00
12172;BME280;6149;52.418;13.668;2022-08-21T05:27:13;101117.06;;;17.40;100.00
12172;BME280;6149;52.418;13.668;2022-08-21T05:29:40;101131.28;;;17.41;100.00
12172;BME280;6149;52.418;13.668;2022-08-21T05:32:09;101123.38;;;17.39;100.00
12172;BME280;6149;52.418;13.668;2022-08-21T05:34:36;101118.69;;;17.43;100.00
12172;BME280;6149;52.418;13.668;2022-08-21T05:37:04;101123.06;;;17.44;100.00
12172;BME280;6149;52.418;13.668;2022-08-21T05:39:32;101116.75;;;17.45;100.00
12172;BME280;6149;52.418;13.668;2022-08-21T05:41:58;101123.66;;;17.47;100.00
12172;BME280;6149;52.418;13.668;2022-08-21T05:44:25;101121.84;;;17.48;100.00
12172;BME280;6149;52.418;13.668;2022-08-21T05:46:52;101121.72;;;17.49;100.00
12172;BME280;6149;52.418;13.668;2022-08-21T05:49:18;101126.22;;;17.49;100.00
12172;BME280;6149;52.418;13.668;2022-08-21T05:51:45;101124.50;;;17.48;100.00
12172;BME280;6149;52.418;13.668;2022-08-21T05:54:13;101128.16;;;17.47;100.00
12172;BME280;6149;52.418;13.668;2022-08-21T05:56:40;101122.78;;;17.47;100.00
12172;BME280;6149;52.418;13.668;2022-08-21T05:59:09;101124.41;;;17.49;100.00
12172;BME280;6149;52.418;13.668;2022-08-21T06:01:39;101126.22;;;17.49;100.00
12172;BME280;6149;52.418;13.668;2022-08-21T06:04:06;101128.78;;;17.50;100.00
12172;BME280;6149;52.418;13.668;2022-08-21T06:06:33;101132.41;;;17.49;100.00
12172;BME280;6149;52.418;13.668;2022-08-21T06:09:00;101136.69;;;17.52;100.00
12172;BME280;6149;52.418;13.668;2022-08-21T06:11:29;101133.69;;;17.56;100.00
12172;BME280;6149;52.418;13.668;2022-08-21T06:13:56;101139.66;;;17.60;100.00
12172;BME280;6149;52.418;13.668;2022-08-21T06:16:25;101144.59;;;17.66;100.00
12172;BME280;6149;52.418;13.668;2022-08-21T06:18:52;101136.75;;;17.63;100.00
12172;BME280;6149;52.418;13.668;2022-08-21T06:21:19;101138.28;;;17.67;100.00
12172;BME280;6149;52.418;13.668;2022-08-21T06:23:47;101134.75;;;17.66;100.00
12172;BME280;6149;52.418;13.668;2022-08-21T06:26:15;101135.03;;;17.75;100.00
12172;BME280;6149;52.418;13.668;2022-08-21T06:28:43;101137.09;;;17.82;100.00
12172;BME280;6149;52.418;13.668;2022-08-21T06:31:12;101140.41;;;17.86;100.00
12172;BME280;6149;52.418;13.668;2022-08-21T06:33:40;101142.63;;;17.92;100.00
12172;BME280;6149;52.418;13.668;2022-08-21T06:36:07;101140.69;;;17.94;100.00
12172;BME280;6149;52.418;13.668;2022-08-21T06:38:35;101138.03;;;17.94;100.00
12172;BME280;6149;52.418;13.668;2022-08-21T06:41:02;101135.84;;;17.99;100.00
12172;BME280;6149;52.418;13.668;2022-08-21T06:43:30;101144.63;;;18.01;100.00
12172;BME280;6149;52.418;13.668;2022-08-21T06:45:59;101143.44;;;18.05;100.00
12172;BME280;6149;52.418;13.668;2022-08-21T06:48:26;101142.34;;;18.08;100.00
12172;BME280;6149;52.418;13.668;2022-08-21T06:50:55;101139.22;;;18.14;100.00
12172;BME280;6149;52.418;13.668;2022-08-21T06:53:24;101137.16;;;18.17;100.00
12172;BME280;6149;52.418;13.668;2022-08-21T06:55:52;101143.59;;;18.26;100.00
12172;BME280;6149;52.418;13.668;2022-08-21T06:58:19;101143.38;;;18.29;100.00
12172;BME280;6149;52.418;13.668;2022-08-21T07:00:49;101137.78;;;18.32;100.00
12172;BME280;6149;52.418;13.668;2022-08-21T07:03:21;101145.22;;;18.40;100.00
12172;BME280;6149;52.418;13.668;2022-08-21T07:05:52;101142.81;;;18.48;100.00
12172;BME280;6149;52.418;13.668;2022-08-21T07:08:22;101137.84;;;18.54;100.00
12172;BME280;6149;52.418;13.668;2022-08-21T07:10:49;101139.28;;;18.58;100.00
12172;BME280;6149;52.418;13.668;2022-08-21T07:13:17;101139.69;;;18.65;100.00
12172;BME280;6149;52.418;13.668;2022-08-21T07:15:45;101135.31;;;18.75;100.00
12172;BME280;6149;52.418;13.668;2022-08-21T07:18:14;101141.41;;;18.77;100.00
12172;BME280;6149;52.418;13.668;2022-08-21T07:20:43;101139.97;;;18.84;100.00
12172;BME280;6149;52.418;13.668;2022-08-21T07:23:23;101136.06;;;18.88;100.00
12172;BME280;6149;52.418;13.668;2022-08-21T07:25:52;101138.50;;;18.91;100.00
12172;BME280;6149;52.418;13.668;2022-08-21T07:28:20;101137.38;;;18.94;100.00
12172;BME280;6149;52.418;13.668;2022-08-21T07:30:50;101134.09;;;19.01;96.98
12172;BME280;6149;52.418;13.668;2022-08-21T07:33:18;101132.16;;;19.03;97.11
12172;BME280;6149;52.418;13.668;2022-08-21T07:35:46;101132.88;;;19.06;99.31
12172;BME280;6149;52.418;13.668;2022-08-21T07:38:13;101135.19;;;19.10;97.32
12172;BME280;6149;52.418;13.668;2022-08-21T07:40:40;101135.69;;;19.15;97.81
12172;BME280;6149;52.418;13.668;2022-08-21T07:43:07;101134.59;;;19.18;96.28
12172;BME280;6149;52.418;13.668;2022-08-21T07:45:34;101136.91;;;19.22;96.63
12172;BME280;6149;52.418;13.668;2022-08-21T07:48:00;101143.84;;;19.25;93.25
12172;BME280;6149;52.418;13.668;2022-08-21T07:50:27;101148.31;;;19.35;91.15
12172;BME280;6149;52.418;13.668;2022-08-21T07:52:55;101134.16;;;19.33;92.25
12172;BME280;6149;52.418;13.668;2022-08-21T07:55:22;101138.56;;;19.34;91.27
12172;BME280;6149;52.418;13.668;2022-08-21T07:57:49;101135.50;;;19.39;92.15
12172;BME280;6149;52.418;13.668;2022-08-21T08:00:18;101130.63;;;19.44;91.19
12172;BME280;6149;52.418;13.668;2022-08-21T08:02:49;101141.09;;;19.47;87.96
12172;BME280;6149;52.418;13.668;2022-08-21T08:05:23;101136.09;;;19.65;90.13
12172;BME280;6149;52.418;13.668;2022-08-21T08:07:51;101132.03;;;19.70;90.89
12172;BME280;6149;52.418;13.668;2022-08-21T08:10:22;101137.97;;;19.85;86.72
12172;BME280;6149;52.418;13.668;2022-08-21T08:12:49;101139.13;;;20.03;88.86
12172;BME280;6149;52.418;13.668;2022-08-21T08:15:20;101136.94;;;20.18;86.45
12172;BME280;6149;52.418;13.668;2022-08-21T08:17:48;101133.56;;;20.37;87.27
12172;BME280;6149;52.418;13.668;2022-08-21T08:20:16;101139.47;;;20.52;86.19
12172;BME280;6149;52.418;13.668;2022-08-21T08:22:45;101143.66;;;20.65;88.12
12172;BME280;6149;52.418;13.668;2022-08-21T08:25:13;101146.41;;;20.75;84.12
12172;BME280;6149;52.418;13.668;2022-08-21T08:27:42;101140.72;;;20.68;81.30
12172;BME280;6149;52.418;13.668;2022-08-21T08:30:12;101144.50;;;20.66;81.55
12172;BME280;6149;52.418;13.668;2022-08-21T08:32:40;101137.31;;;20.66;79.01
12172;BME280;6149;52.418;13.668;2022-08-21T08:35:08;101133.03;;;20.64;81.11
12172;BME280;6149;52.418;13.668;2022-08-21T08:37:37;101135.47;;;20.67;81.64
12172;BME280;6149;52.418;13.668;2022-08-21T08:40:07;101136.19;;;20.69;83.37
12172;BME280;6149;52.418;13.668;2022-08-21T08:42:37;101136.91;;;20.71;82.60
12172;BME280;6149;52.418;13.668;2022-08-21T08:45:08;101141.88;;;20.76;81.79
12172;BME280;6149;52.418;13.668;2022-08-21T08:47:39;101135.22;;;20.80;80.95
12172;BME280;6149;52.418;13.668;2022-08-21T08:50:11;101138.72;;;21.01;80.91
12172;BME280;6149;52.418;13.668;2022-08-21T08:52:42;101144.50;;;20.96;78.90
12172;BME280;6149;52.418;13.668;2022-08-21T08:55:14;101136.31;;;20.98;77.61
12172;BME280;6149;52.418;13.668;2022-08-21T08:57:45;101142.31;;;21.11;79.24
12172;BME280;6149;52.418;13.668;2022-08-21T09:00:18;101133.16;;;21.23;74.65
12172;BME280;6149;52.418;13.668;2022-08-21T09:02:47;101136.34;;;21.17;75.53
12172;BME280;6149;52.418;13.668;2022-08-21T09:05:20;101134.53;;;21.18;74.60
12172;BME280;6149;52.418;13.668;2022-08-21T09:07:59;101121.38;;;21.15;77.70
12172;BME280;6149;52.418;13.668;2022-08-21T09:10:48;101124.94;;;21.25;74.74
12172;BME280;6149;52.418;13.668;2022-08-21T09:13:24;101123.97;;;21.26;76.40
12172;BME280;6149;52.418;13.668;2022-08-21T09:16:06;101126.66;;;21.26;74.14
12172;BME280;6149;52.418;13.668;2022-08-21T09:18:43;101123.56;;;21.30;73.27
12172;BME280;6149;52.418;13.668;2022-08-21T09:21:23;101123.16;;;21.35;75.68
12172;BME280;6149;52.418;13.668;2022-08-21T09:23:57;101132.38;;;21.42;78.04
12172;BME280;6149;52.418;13.668;2022-08-21T09:26:31;101137.22;;;21.48;74.49
12172;BME280;6149;52.418;13.668;2022-08-21T09:29:04;101135.34;;;21.58;70.78
12172;BME280;6149;52.418;13.668;2022-08-21T09:31:36;101136.22;;;21.59;68.66
12172;BME280;6149;52.418;13.668;2022-08-21T09:34:06;101128.13;;;21.59;72.35
12172;BME280;6149;52.418;13.668;2022-08-21T09:36:39;101129.84;;;21.60;70.47
12172;BME280;6149;52.418;13.668;2022-08-21T09:39:09;101126.16;;;21.61;71.32
12172;BME280;6149;52.418;13.668;2022-08-21T09:41:38;101122.06;;;21.66;69.89
12172;BME280;6149;52.418;13.668;2022-08-21T09:44:08;101131.56;;;21.71;69.94
12172;BME280;6149;52.418;13.668;2022-08-21T09:46:36;101126.03;;;21.72;70.19
12172;BME280;6149;52.418;13.668;2022-08-21T09:49:04;101128.19;;;21.88;71.55
12172;BME280;6149;52.418;13.668;2022-08-21T09:51:33;101130.41;;;21.92;68.11
12172;BME280;6149;52.418;13.668;2022-08-21T09:54:14;101127.44;;;21.95;67.89
12172;BME280;6149;52.418;13.668;2022-08-21T09:56:53;101134.38;;;21.98;70.60
12172;BME280;6149;52.418;13.668;2022-08-21T09:59:39;101133.84;;;22.04;66.91
12172;BME280;6149;52.418;13.668;2022-08-21T10:02:24;101127.47;;;22.05;67.79
12172;BME280;6149;52.418;13.668;2022-08-21T10:04:54;101127.34;;;22.16;65.61
12172;BME280;6149;52.418;13.668;2022-08-21T10:07:24;101123.09;;;22.14;67.36
12172;BME280;6149;52.418;13.668;2022-08-21T10:10:06;101130.19;;;22.15;68.08
12172;BME280;6149;52.418;13.668;2022-08-21T10:12:43;101129.31;;;22.14;68.26
12172;BME280;6149;52.418;13.668;2022-08-21T10:15:22;101133.28;;;22.20;67.87
12172;BME280;6149;52.418;13.668;2022-08-21T10:18:00;101132.72;;;22.26;66.08
12172;BME280;6149;52.418;13.668;2022-08-21T10:20:40;101128.19;;;22.26;67.64
12172;BME280;6149;52.418;13.668;2022-08-21T10:23:27;101127.19;;;22.27;66.35
12172;BME280;6149;52.418;13.668;2022-08-21T10:26:12;101127.84;;;22.39;64.26
12172;BME280;6149;52.418;13.668;2022-08-21T10:28:55;101134.09;;;22.40;65.81
12172;BME280;6149;52.418;13.668;2022-08-21T10:31:35;101126.00;;;22.49;68.03
12172;BME280;6149;52.418;13.668;2022-08-21T10:34:19;101140.06;;;22.43;66.55
12172;BME280;6149;52.418;13.668;2022-08-21T10:37:04;101124.44;;;22.47;64.83
12172;BME280;6149;52.418;13.668;2022-08-21T10:39:50;101129.69;;;22.48;65.75
12172;BME280;6149;52.418;13.668;2022-08-21T10:42:32;101131.25;;;22.51;65.74
12172;BME280;6149;52.418;13.668;2022-08-21T10:45:18;101123.16;;;22.51;64.61
12172;BME280;6149;52.418;13.668;2022-08-21T10:47:54;101133.66;;;22.44;63.39
12172;BME280;6149;52.418;13.668;2022-08-21T10:50:30;101131.09;;;22.62;65.05
12172;BME280;6149;52.418;13.668;2022-08-21T10:53:11;101125.50;;;22.73;63.64
12172;BME280;6149;52.418;13.668;2022-08-21T10:55:56;101136.72;;;22.78;64.89
12172;BME280;6149;52.418;13.668;2022-08-21T10:58:29;101131.19;;;22.80;61.95
12172;BME280;6149;52.418;13.668;2022-08-21T11:00:58;101138.38;;;22.89;63.38
12172;BME280;6149;52.418;13.668;2022-08-21T11:03:33;101122.75;;;22.92;62.15
12172;BME280;6149;52.418;13.668;2022-08-21T11:06:09;101133.81;;;22.99;62.18
12172;BME280;6149;52.418;13.668;2022-08-21T11:08:42;101130.50;;;23.05;61.70
12172;BME280;6149;52.418;13.668;2022-08-21T11:11:14;101132.66;;;23.02;61.75
12172;BME280;6149;52.418;13.668;2022-08-21T11:13:49;101129.66;;;23.05;60.29
12172;BME280;6149;52.418;13.668;2022-08-21T11:16:23;101127.66;;;23.07;61.40
12172;BME280;6149;52.418;13.668;2022-08-21T11:18:56;101125.91;;;23.15;62.52
12172;BME280;6149;52.418;13.668;2022-08-21T11:21:34;101131.44;;;23.14;62.75
12172;BME280;6149;52.418;13.668;2022-08-21T11:24:17;101125.63;;;23.18;58.39
12172;BME280;6149;52.418;13.668;2022-08-21T11:26:52;101134.66;;;22.99;61.87
12172;BME280;6149;52.418;13.668;2022-08-21T11:29:28;101137.38;;;22.99;59.55
12172;BME280;6149;52.418;13.668;2022-08-21T11:32:14;101127.41;;;23.00;59.45
12172;BME280;6149;52.418;13.668;2022-08-21T11:35:02;101131.13;;;22.99;58.29
12172;BME280;6149;52.418;13.668;2022-08-21T11:37:48;101127.94;;;23.04;58.79
12172;BME280;6149;52.418;13.668;2022-08-21T11:40:34;101121.06;;;23.19;59.54
12172;BME280;6149;52.418;13.668;2022-08-21T11:43:17;101124.91;;;23.16;58.14
12172;BME280;6149;52.418;13.668;2022-08-21T11:45:50;101124.34;;;23.13;59.48
12172;BME280;6149;52.418;13.668;2022-08-21T11:48:33;101118.91;;;23.22;58.53
12172;BME280;6149;52.418;13.668;2022-08-21T11:51:09;101121.31;;;23.25;58.91
12172;BME280;6149;52.418;13.668;2022-08-21T11:53:42;101110.78;;;23.32;59.14
12172;BME280;6149;52.418;13.668;2022-08-21T11:56:18;101129.13;;;23.28;56.53
12172;BME280;6149;52.418;13.668;2022-08-21T11:58:50;101117.47;;;23.28;55.37
12172;BME280;6149;52.418;13.668;2022-08-21T12:01:23;101113.16;;;23.35;57.45
12172;BME280;6149;52.418;13.668;2022-08-21T12:03:56;101111.16;;;23.37;60.17
12172;BME280;6149;52.418;13.668;2022-08-21T12:06:30;101112.78;;;23.48;55.59
12172;BME280;6149;52.418;13.668;2022-08-21T12:09:04;101114.22;;;23.42;59.08
12172;BME280;6149;52.418;13.668;2022-08-21T12:11:46;101102.97;;;23.47;57.12
12172;BME280;6149;52.418;13.668;2022-08-21T12:14:16;101112.78;;;23.48;58.21
12172;BME280;6149;52.418;13.668;2022-08-21T12:16:46;101111.91;;;23.57;56.36
12172;BME280;6149;52.418;13.668;2022-08-21T12:19:28;101111.59;;;23.60;58.14
12172;BME280;6149;52.418;13.668;2022-08-21T12:21:59;101114.94;;;23.44;56.73
12172;BME280;6149;52.418;13.668;2022-08-21T12:24:39;101106.47;;;23.39;57.63
12172;BME280;6149;52.418;13.668;2022-08-21T12:27:21;101108.47;;;23.37;58.69
12172;BME280;6149;52.418;13.668;2022-08-21T12:29:53;101111.16;;;23.37;56.87
12172;BME280;6149;52.418;13.668;2022-08-21T12:32:25;101115.72;;;23.37;57.41
12172;BME280;6149;52.418;13.668;2022-08-21T12:34:58;101103.22;;;23.36;56.13
12172;BME280;6149;52.418;13.668;2022-08-21T12:37:37;101110.38;;;23.45;55.97
12172;BME280;6149;52.418;13.668;2022-08-21T12:40:22;101107.06;;;23.33;56.63
12172;BME280;6149;52.418;13.668;2022-08-21T12:42:51;101105.91;;;23.36;56.29
12172;BME280;6149;52.418;13.668;2022-08-21T12:45:26;101100.03;;;23.40;54.17
12172;BME280;6149;52.418;13.668;2022-08-21T12:47:59;101102.97;;;23.47;55.02
12172;BME280;6149;52.418;13.668;2022-08-21T12:50:36;101096.84;;;23.54;55.67
12172;BME280;6149;52.418;13.668;2022-08-21T12:53:08;101097.28;;;23.50;55.71
12172;BME280;6149;52.418;13.668;2022-08-21T12:55:42;101101.81;;;23.59;55.16
12172;BME280;6149;52.418;13.668;2022-08-21T12:58:17;101102.94;;;23.56;52.62
12172;BME280;6149;52.418;13.668;2022-08-21T13:00:49;101094.56;;;23.59;52.98
12172;BME280;6149;52.418;13.668;2022-08-21T13:03:17;101091.16;;;23.57;55.42
12172;BME280;6149;52.418;13.668;2022-08-21T13:05:45;101101.44;;;23.72;55.75